sensor_id;sensor_type;location;lat;lon;timestamp;temperature;humidity
19200;DHT22;9732;52.498;5.408;2023-11-19T00:00:00;13.10;99.90
19200;DHT22;9732;52.498;5.408;2023-11-19T00:02:31;13.10;99.90
19200;DHT22;9732;52.498;5.408;2023-11-19T00:04:57;13.10;99.90
19200;DHT22;9732;52.498;5.408;2023-11-19T00:07:24;13.10;99.90
19200;DHT22;9732;52.498;5.408;2023-11-19T00:09:51;13.00;99.90
19200;DHT22;9732;52.498;5.408;2023-11-19T00:12:17;13.10;99.90
19200;DHT22;9732;52.498;5.408;2023-11-19T00:14:44;13.10;99.90
19200;DHT22;9732;52.498;5.408;2023-11-19T00:17:11;13.00;99.90
19200;DHT22;9732;52.498;5.408;2023-11-19T00:19:39;13.00;99.90
19200;DHT22;9732;52.498;5.408;2023-11-19T00:22:07;13.00;99.90
19200;DHT22;9732;52.498;5.408;2023-11-19T00:24:33;13.00;99.90
19200;DHT22;9732;52.498;5.408;2023-11-19T00:27:00;13.00;99.90
19200;DHT22;9732;52.498;5.408;2023-11-19T00:29:27;13.00;99.90
19200;DHT22;9732;52.498;5.408;2023-11-19T00:31:54;13.10;99.90
19200;DHT22;9732;52.498;5.408;2023-11-19T00:34:20;13.00;99.90
19200;DHT22;9732;52.498;5.408;2023-11-19T00:36:49;13.00;99.90
19200;DHT22;9732;52.498;5.408;2023-11-19T00:39:16;13.10;99.90
19200;DHT22;9732;52.498;5.408;2023-11-19T00:41:45;13.00;99.90
19200;DHT22;9732;52.498;5.408;2023-11-19T00:44:12;13.00;99.90
19200;DHT22;9732;52.498;5.408;2023-11-19T00:46:39;13.10;99.90
19200;DHT22;9732;52.498;5.408;2023-11-19T00:49:05;13.00;99.90
19200;DHT22;9732;52.498;5.408;2023-11-19T00:51:32;13.00;99.90
19200;DHT22;9732;52.498;5.408;2023-11-19T00:54:01;12.90;99.90
19200;DHT22;9732;52.498;5.408;2023-11-19T00:56:27;12.90;99.90
19200;DHT22;9732;52.498;5.408;2023-11-19T00:58:54;12.80;99.90
19200;DHT22;9732;52.498;5.408;2023-11-19T01:01:21;12.80;99.90
19200;DHT22;9732;52.498;5.408;2023-11-19T01:03:48;12.80;99.90
19200;DHT22;9732;52.498;5.408;2023-11-19T01:06:15;12.70;99.90
19200;DHT22;9732;52.498;5.408;2023-11-19T01:08:42;12.70;99.90
19200;DHT22;9732;52.498;5.408;2023-11-19T01:11:19;12.70;99.90
19200;DHT22;9732;52.498;5.408;2023-11-19T01:13:46;12.70;99.90
19200;DHT22;9732;52.498;5.408;2023-11-19T01:16:13;12.70;99.90
19200;DHT22;9732;52.498;5.408;2023-11-19T01:18:40;12.70;99.90
19200;DHT22;9732;52.498;5.408;2023-11-19T01:21:07;12.70;99.90
19200;DHT22;9732;52.498;5.408;2023-11-19T01:23:34;12.80;99.90
19200;DHT22;9732;52.498;5.408;2023-11-19T01:26:00;12.80;99.90
19200;DHT22;9732;52.498;5.408;2023-11-19T01:28:29;12.80;99.90
19200;DHT22;9732;52.498;5.408;2023-11-19T01:30:56;12.80;99.90
19200;DHT22;9732;52.498;5.408;2023-11-19T01:33:23;12.80;99.90
19200;DHT22;9732;52.498;5.408;2023-11-19T01:35:50;12.80;99.90
19200;DHT22;9732;52.498;5.408;2023-11-19T01:38:17;12.70;99.90
19200;DHT22;9732;52.498;5.408;2023-11-19T01:40:44;12.70;99.90
19200;DHT22;9732;52.498;5.408;2023-11-19T01:43:10;12.70;99.90
19200;DHT22;9732;52.498;5.408;2023-11-19T01:45:40;12.70;99.90
19200;DHT22;9732;52.498;5.408;2023-11-19T01:48:07;12.70;99.90
19200;DHT22;9732;52.498;5.408;2023-11-19T01:50:37;12.70;99.90
19200;DHT22;9732;52.498;5.408;2023-11-19T01:53:03;12.60;99.90
19200;DHT22;9732;52.498;5.408;2023-11-19T01:55:30;12.70;99.90
19200;DHT22;9732;52.498;5.408;2023-11-19T01:58:00;12.70;99.90
19200;DHT22;9732;52.498;5.408;2023-11-19T02:00:27;12.70;99.90
19200;DHT22;9732;52.498;5.408;2023-11-19T02:02:56;12.70;99.90
19200;DHT22;9732;52.498;5.408;2023-11-19T02:05:23;12.70;99.90
19200;DHT22;9732;52.498;5.408;2023-11-19T02:07:50;12.70;99.90
19200;DHT22;9732;52.498;5.408;2023-11-19T02:10:17;12.80;99.90
19200;DHT22;9732;52.498;5.408;2023-11-19T02:12:45;12.80;99.90
19200;DHT22;9732;52.498;5.408;2023-11-19T02:15:12;12.80;99.90
19200;DHT22;9732;52.498;5.408;2023-11-19T02:17:39;12.80;99.90
19200;DHT22;9732;52.498;5.408;2023-11-19T02:20:08;12.80;99.90
19200;DHT22;9732;52.498;5.408;2023-11-19T02:22:37;12.80;99.90
19200;DHT22;9732;52.498;5.408;2023-11-19T02:25:07;12.70;99.90
19200;DHT22;9732;52.498;5.408;2023-11-19T02:27:46;12.60;99.90
19200;DHT22;9732;52.498;5.408;2023-11-19T02:30:14;12.60;99.90
19200;DHT22;9732;52.498;5.408;2023-11-19T02:32:41;12.60;99.90
19200;DHT22;9732;52.498;5.408;2023-11-19T02:35:08;12.50;99.90
19200;DHT22;9732;52.498;5.408;2023-11-19T02:37:35;12.40;99.90
19200;DHT22;9732;52.498;5.408;2023-11-19T02:40:01;12.40;99.90
19200;DHT22;9732;52.498;5.408;2023-11-19T02:42:30;12.40;99.90
19200;DHT22;9732;52.498;5.408;2023-11-19T02:44:59;12.40;99.90
19200;DHT22;9732;52.498;5.408;2023-11-19T02:47:25;12.30;99.90
19200;DHT22;9732;52.498;5.408;2023-11-19T02:49:55;12.30;99.90
19200;DHT22;9732;52.498;5.408;2023-11-19T02:52:23;12.20;99.90
19200;DHT22;9732;52.498;5.408;2023-11-19T02:54:50;12.30;99.90
19200;DHT22;9732;52.498;5.408;2023-11-19T02:57:17;12.30;99.90
19200;DHT22;9732;52.498;5.408;2023-11-19T02:59:45;12.30;99.90
19200;DHT22;9732;52.498;5.408;2023-11-19T03:02:13;12.30;99.90
19200;DHT22;9732;52.498;5.408;2023-11-19T03:04:41;12.20;99.90
19200;DHT22;9732;52.498;5.408;2023-11-19T03:07:11;12.20;99.90
19200;DHT22;9732;52.498;5.408;2023-11-19T03:09:39;12.10;99.90
19200;DHT22;9732;52.498;5.408;2023-11-19T03:12:07;12.10;99.90
19200;DHT22;9732;52.498;5.408;2023-11-19T03:14:34;12.10;99.90
19200;DHT22;9732;52.498;5.408;2023-11-19T03:17:01;12.10;99.90
19200;DHT22;9732;52.498;5.408;2023-11-19T03:19:30;12.00;99.90
19200;DHT22;9732;52.498;5.408;2023-11-19T03:21:56;12.00;99.90
19200;DHT22;9732;52.498;5.408;2023-11-19T03:24:23;12.20;99.90
19200;DHT22;9732;52.498;5.408;2023-11-19T03:26:50;12.00;99.90
19200;DHT22;9732;52.498;5.408;2023-11-19T03:29:17;12.00;99.90
19200;DHT22;9732;52.498;5.408;2023-11-19T03:31:44;12.00;99.90
19200;DHT22;9732;52.498;5.408;2023-11-19T03:34:11;12.10;99.90
19200;DHT22;9732;52.498;5.408;2023-11-19T03:36:39;12.00;99.90
19200;DHT22;9732;52.498;5.408;2023-11-19T03:39:06;12.00;99.90
19200;DHT22;9732;52.498;5.408;2023-11-19T03:41:33;12.00;99.90
19200;DHT22;9732;52.498;5.408;2023-11-19T03:44:00;12.00;99.90
19200;DHT22;9732;52.498;5.408;2023-11-19T03:46:27;12.00;99.90
19200;DHT22;9732;52.498;5.408;2023-11-19T03:48:55;11.90;99.90
19200;DHT22;9732;52.498;5.408;2023-11-19T03:51:21;12.00;99.90
19200;DHT22;9732;52.498;5.408;2023-11-19T03:53:49;11.90;99.90
19200;DHT22;9732;52.498;5.408;2023-11-19T03:56:16;12.00;99.90
19200;DHT22;9732;52.498;5.408;2023-11-19T03:58:43;12.00;99.90
19200;DHT22;9732;52.498;5.408;2023-11-19T04:01:11;12.00;99.90
19200;DHT22;9732;52.498;5.408;2023-11-19T04:03:39;12.00;99.90
19200;DHT22;9732;52.498;5.408;2023-11-19T04:06:06;12.10;99.90
19200;DHT22;9732;52.498;5.408;2023-11-19T04:08:33;12.10;99.90
19200;DHT22;9732;52.498;5.408;2023-11-19T04:11:02;12.10;99.90
19200;DHT22;9732;52.498;5.408;2023-11-19T04:13:29;12.10;99.90
19200;DHT22;9732;52.498;5.408;2023-11-19T04:15:56;12.10;99.90
19200;DHT22;9732;52.498;5.408;2023-11-19T04:18:23;12.10;99.90
19200;DHT22;9732;52.498;5.408;2023-11-19T04:20:49;12.20;99.90
19200;DHT22;9732;52.498;5.408;2023-11-19T04:23:16;12.00;99.90
19200;DHT22;9732;52.498;5.408;2023-11-19T04:25:54;12.00;99.90
19200;DHT22;9732;52.498;5.408;2023-11-19T04:29:06;12.00;99.90
19200;DHT22;9732;52.498;5.408;2023-11-19T04:31:40;11.90;99.90
19200;DHT22;9732;52.498;5.408;2023-11-19T04:34:07;12.00;99.90
19200;DHT22;9732;52.498;5.408;2023-11-19T04:36:34;12.00;99.90
19200;DHT22;9732;52.498;5.408;2023-11-19T04:39:03;11.90;99.90
19200;DHT22;9732;52.498;5.408;2023-11-19T04:41:34;11.90;99.90
19200;DHT22;9732;52.498;5.408;2023-11-19T04:44:02;11.90;99.90
19200;DHT22;9732;52.498;5.408;2023-11-19T04:46:28;11.90;99.90
19200;DHT22;9732;52.498;5.408;2023-11-19T04:48:55;11.90;99.90
19200;DHT22;9732;52.498;5.408;2023-11-19T04:51:22;12.00;99.90
19200;DHT22;9732;52.498;5.408;2023-11-19T04:53:54;12.00;99.90
19200;DHT22;9732;52.498;5.408;2023-11-19T04:56:21;11.80;99.90
19200;DHT22;9732;52.498;5.408;2023-11-19T04:58:49;12.00;99.90
19200;DHT22;9732;52.498;5.408;2023-11-19T05:01:17;11.80;99.90
19200;DHT22;9732;52.498;5.408;2023-11-19T05:03:44;11.70;99.90
19200;DHT22;9732;52.498;5.408;2023-11-19T05:06:12;11.80;99.90
19200;DHT22;9732;52.498;5.408;2023-11-19T05:08:38;11.80;99.90
19200;DHT22;9732;52.498;5.408;2023-11-19T05:11:05;11.90;99.90
19200;DHT22;9732;52.498;5.408;2023-11-19T05:13:32;11.80;99.90
19200;DHT22;9732;52.498;5.408;2023-11-19T05:15:59;11.90;99.90
19200;DHT22;9732;52.498;5.408;2023-11-19T05:18:30;11.90;99.90
19200;DHT22;9732;52.498;5.408;2023-11-19T05:20:57;11.90;99.90
19200;DHT22;9732;52.498;5.408;2023-11-19T05:23:23;11.90;99.90
19200;DHT22;9732;52.498;5.408;2023-11-19T05:25:50;12.00;99.90
19200;DHT22;9732;52.498;5.408;2023-11-19T05:28:17;12.10;99.90
19200;DHT22;9732;52.498;5.408;2023-11-19T05:30:43;11.90;99.90
19200;DHT22;9732;52.498;5.408;2023-11-19T05:33:10;11.90;99.90
19200;DHT22;9732;52.498;5.408;2023-11-19T05:35:38;11.90;99.90
19200;DHT22;9732;52.498;5.408;2023-11-19T05:38:05;11.90;99.90
19200;DHT22;9732;52.498;5.408;2023-11-19T05:40:31;12.00;99.90
19200;DHT22;9732;52.498;5.408;2023-11-19T05:42:58;11.80;99.90
19200;DHT22;9732;52.498;5.408;2023-11-19T05:45:27;11.80;99.90
19200;DHT22;9732;52.498;5.408;2023-11-19T05:47:53;11.80;99.90
19200;DHT22;9732;52.498;5.408;2023-11-19T05:50:20;11.70;99.90
19200;DHT22;9732;52.498;5.408;2023-11-19T05:52:48;11.70;99.90
19200;DHT22;9732;52.498;5.408;2023-11-19T05:55:15;11.70;99.90
19200;DHT22;9732;52.498;5.408;2023-11-19T05:57:42;11.60;99.90
19200;DHT22;9732;52.498;5.408;2023-11-19T06:00:16;11.60;99.90
19200;DHT22;9732;52.498;5.408;2023-11-19T06:02:43;11.60;99.90
19200;DHT22;9732;52.498;5.408;2023-11-19T06:05:10;11.80;99.90
19200;DHT22;9732;52.498;5.408;2023-11-19T06:07:37;11.70;99.90
19200;DHT22;9732;52.498;5.408;2023-11-19T06:10:08;11.60;99.90
19200;DHT22;9732;52.498;5.408;2023-11-19T06:12:35;11.60;99.90
19200;DHT22;9732;52.498;5.408;2023-11-19T06:15:05;11.60;99.90
19200;DHT22;9732;52.498;5.408;2023-11-19T06:17:33;11.60;99.90
19200;DHT22;9732;52.498;5.408;2023-11-19T06:20:00;11.70;99.90
19200;DHT22;9732;52.498;5.408;2023-11-19T06:22:29;11.60;99.90
19200;DHT22;9732;52.498;5.408;2023-11-19T06:24:56;11.60;99.90
19200;DHT22;9732;52.498;5.408;2023-11-19T06:27:25;11.60;99.90
19200;DHT22;9732;52.498;5.408;2023-11-19T06:29:52;11.50;99.90
19200;DHT22;9732;52.498;5.408;2023-11-19T06:32:18;11.50;99.90
19200;DHT22;9732;52.498;5.408;2023-11-19T06:34:45;11.50;99.90
19200;DHT22;9732;52.498;5.408;2023-11-19T06:37:12;11.50;99.90
19200;DHT22;9732;52.498;5.408;2023-11-19T06:39:38;11.50;99.90
19200;DHT22;9732;52.498;5.408;2023-11-19T06:42:06;11.50;99.90
19200;DHT22;9732;52.498;5.408;2023-11-19T06:44:34;11.40;99.90
19200;DHT22;9732;52.498;5.408;2023-11-19T06:47:01;11.50;99.90
19200;DHT22;9732;52.498;5.408;2023-11-19T06:49:27;11.50;99.90
19200;DHT22;9732;52.498;5.408;2023-11-19T06:51:54;11.50;99.90
19200;DHT22;9732;52.498;5.408;2023-11-19T06:54:21;11.50;99.90
19200;DHT22;9732;52.498;5.408;2023-11-19T06:56:48;11.40;99.90
19200;DHT22;9732;52.498;5.408;2023-11-19T06:59:15;11.60;99.90
19200;DHT22;9732;52.498;5.408;2023-11-19T07:01:43;11.40;99.90
19200;DHT22;9732;52.498;5.408;2023-11-19T07:04:10;11.40;99.90
19200;DHT22;9732;52.498;5.408;2023-11-19T07:06:38;11.40;99.90
19200;DHT22;9732;52.498;5.408;2023-11-19T07:09:06;11.60;99.90
19200;DHT22;9732;52.498;5.408;2023-11-19T07:11:36;11.40;99.90
19200;DHT22;9732;52.498;5.408;2023-11-19T07:14:04;11.50;99.90
19200;DHT22;9732;52.498;5.408;2023-11-19T07:16:31;11.50;99.90
19200;DHT22;9732;52.498;5.408;2023-11-19T07:19:00;11.70;99.90
19200;DHT22;9732;52.498;5.408;2023-11-19T07:21:27;11.70;99.90
19200;DHT22;9732;52.498;5.408;2023-11-19T07:23:54;11.60;99.90
19200;DHT22;9732;52.498;5.408;2023-11-19T07:26:21;11.60;99.90
19200;DHT22;9732;52.498;5.408;2023-11-19T07:28:48;11.60;99.90
19200;DHT22;9732;52.498;5.408;2023-11-19T07:31:15;11.60;99.90
19200;DHT22;9732;52.498;5.408;2023-11-19T07:33:43;11.70;99.90
19200;DHT22;9732;52.498;5.408;2023-11-19T07:36:11;11.70;99.90
19200;DHT22;9732;52.498;5.408;2023-11-19T07:38:38;11.80;99.90
19200;DHT22;9732;52.498;5.408;2023-11-19T07:41:05;11.90;99.90
19200;DHT22;9732;52.498;5.408;2023-11-19T07:43:34;11.80;99.90
19200;DHT22;9732;52.498;5.408;2023-11-19T07:46:01;11.90;99.90
19200;DHT22;9732;52.498;5.408;2023-11-19T07:48:29;12.10;99.90
19200;DHT22;9732;52.498;5.408;2023-11-19T07:50:56;11.90;99.90
19200;DHT22;9732;52.498;5.408;2023-11-19T07:53:24;11.90;99.90
19200;DHT22;9732;52.498;5.408;2023-11-19T07:55:50;12.00;99.90
19200;DHT22;9732;52.498;5.408;2023-11-19T07:58:17;12.00;99.90
19200;DHT22;9732;52.498;5.408;2023-11-19T08:00:44;12.00;99.90
19200;DHT22;9732;52.498;5.408;2023-11-19T08:03:11;12.10;99.90
19200;DHT22;9732;52.498;5.408;2023-11-19T08:05:37;12.10;99.90
19200;DHT22;9732;52.498;5.408;2023-11-19T08:08:04;12.20;99.90
19200;DHT22;9732;52.498;5.408;2023-11-19T08:10:33;12.00;99.90
19200;DHT22;9732;52.498;5.408;2023-11-19T08:13:00;12.00;99.90
19200;DHT22;9732;52.498;5.408;2023-11-19T08:15:27;12.00;99.90
19200;DHT22;9732;52.498;5.408;2023-11-19T08:17:54;12.00;99.90
19200;DHT22;9732;52.498;5.408;2023-11-19T08:20:20;12.00;99.90
19200;DHT22;9732;52.498;5.408;2023-11-19T08:22:47;12.00;99.90
19200;DHT22;9732;52.498;5.408;2023-11-19T08:25:14;12.00;99.90
19200;DHT22;9732;52.498;5.408;2023-11-19T08:27:42;12.00;99.90
19200;DHT22;9732;52.498;5.408;2023-11-19T08:30:09;12.10;99.90
19200;DHT22;9732;52.498;5.408;2023-11-19T08:32:37;12.10;99.90
19200;DHT22;9732;52.498;5.408;2023-11-19T08:35:04;12.10;99.90
19200;DHT22;9732;52.498;5.408;2023-11-19T08:37:32;12.20;99.90
19200;DHT22;9732;52.498;5.408;2023-11-19T08:40:02;12.20;99.90
19200;DHT22;9732;52.498;5.408;2023-11-19T08:42:30;12.20;99.90
19200;DHT22;9732;52.498;5.408;2023-11-19T08:44:59;12.20;99.90
19200;DHT22;9732;52.498;5.408;2023-11-19T08:47:26;12.30;99.90
19200;DHT22;9732;52.498;5.408;2023-11-19T08:49:53;12.40;99.90
19200;DHT22;9732;52.498;5.408;2023-11-19T08:52:20;12.30;99.90
19200;DHT22;9732;52.498;5.408;2023-11-19T08:54:49;12.40;99.90
19200;DHT22;9732;52.498;5.408;2023-11-19T08:57:16;12.40;99.90
19200;DHT22;9732;52.498;5.408;2023-11-19T08:59:44;12.40;99.90
19200;DHT22;9732;52.498;5.408;2023-11-19T09:02:14;12.40;99.90
19200;DHT22;9732;52.498;5.408;2023-11-19T09:04:43;12.40;99.90
19200;DHT22;9732;52.498;5.408;2023-11-19T09:07:10;12.50;99.90
19200;DHT22;9732;52.498;5.408;2023-11-19T09:09:38;12.50;99.90
19200;DHT22;9732;52.498;5.408;2023-11-19T09:12:06;12.50;99.90
19200;DHT22;9732;52.498;5.408;2023-11-19T09:14:34;12.50;99.90
19200;DHT22;9732;52.498;5.408;2023-11-19T09:17:01;12.60;99.90
19200;DHT22;9732;52.498;5.408;2023-11-19T09:19:32;12.60;99.90
19200;DHT22;9732;52.498;5.408;2023-11-19T09:22:02;12.60;99.90
19200;DHT22;9732;52.498;5.408;2023-11-19T09:24:29;12.60;99.90
19200;DHT22;9732;52.498;5.408;2023-11-19T09:26:58;12.60;99.90
19200;DHT22;9732;52.498;5.408;2023-11-19T09:29:26;12.70;99.90
19200;DHT22;9732;52.498;5.408;2023-11-19T09:31:52;12.70;99.90
19200;DHT22;9732;52.498;5.408;2023-11-19T09:34:19;12.70;99.90
19200;DHT22;9732;52.498;5.408;2023-11-19T09:36:48;12.70;99.90
19200;DHT22;9732;52.498;5.408;2023-11-19T09:39:16;12.70;99.90
19200;DHT22;9732;52.498;5.408;2023-11-19T09:41:44;12.80;99.90
19200;DHT22;9732;52.498;5.408;2023-11-19T09:44:12;12.80;99.90
19200;DHT22;9732;52.498;5.408;2023-11-19T09:46:43;12.80;99.90
19200;DHT22;9732;52.498;5.408;2023-11-19T09:49:11;12.70;99.90
19200;DHT22;9732;52.498;5.408;2023-11-19T09:51:41;12.70;99.90
19200;DHT22;9732;52.498;5.408;2023-11-19T09:54:10;12.80;99.90
19200;DHT22;9732;52.498;5.408;2023-11-19T09:56:39;12.80;99.90
19200;DHT22;9732;52.498;5.408;2023-11-19T09:59:08;12.90;99.90
19200;DHT22;9732;52.498;5.408;2023-11-19T10:01:38;12.90;99.90
19200;DHT22;9732;52.498;5.408;2023-11-19T10:04:06;12.90;99.90
19200;DHT22;9732;52.498;5.408;2023-11-19T10:06:34;13.00;99.90
19200;DHT22;9732;52.498;5.408;2023-11-19T10:09:03;13.00;99.90
19200;DHT22;9732;52.498;5.408;2023-11-19T10:11:32;13.00;99.90
19200;DHT22;9732;52.498;5.408;2023-11-19T10:14:01;13.00;99.90
19200;DHT22;9732;52.498;5.408;2023-11-19T10:16:29;13.10;99.90
19200;DHT22;9732;52.498;5.408;2023-11-19T10:18:58;13.10;99.90
19200;DHT22;9732;52.498;5.408;2023-11-19T10:21:25;13.10;99.90
19200;DHT22;9732;52.498;5.408;2023-11-19T10:23:56;13.10;99.90
19200;DHT22;9732;52.498;5.408;2023-11-19T10:26:28;13.00;99.90
19200;DHT22;9732;52.498;5.408;2023-11-19T10:28:58;13.00;99.90
19200;DHT22;9732;52.498;5.408;2023-11-19T10:31:27;13.00;99.90
19200;DHT22;9732;52.498;5.408;2023-11-19T10:33:55;12.90;99.90
19200;DHT22;9732;52.498;5.408;2023-11-19T10:36:22;12.80;99.90
19200;DHT22;9732;52.498;5.408;2023-11-19T10:38:54;12.70;99.90
19200;DHT22;9732;52.498;5.408;2023-11-19T10:41:28;12.70;99.90
19200;DHT22;9732;52.498;5.408;2023-11-19T10:43:57;12.80;99.90
19200;DHT22;9732;52.498;5.408;2023-11-19T10:46:36;12.70;99.90
19200;DHT22;9732;52.498;5.408;2023-11-19T10:49:03;12.70;99.90
19200;DHT22;9732;52.498;5.408;2023-11-19T10:51:31;12.60;99.90
19200;DHT22;9732;52.498;5.408;2023-11-19T10:54:02;12.60;99.90
19200;DHT22;9732;52.498;5.408;2023-11-19T10:56:31;12.50;99.90
19200;DHT22;9732;52.498;5.408;2023-11-19T10:59:00;12.50;99.90
19200;DHT22;9732;52.498;5.408;2023-11-19T11:01:44;12.40;99.90
19200;DHT22;9732;52.498;5.408;2023-11-19T11:04:14;12.50;99.90
19200;DHT22;9732;52.498;5.408;2023-11-19T11:06:41;12.40;99.90
19200;DHT22;9732;52.498;5.408;2023-11-19T11:09:09;12.50;99.90
19200;DHT22;9732;52.498;5.408;2023-11-19T11:11:38;12.80;99.90
19200;DHT22;9732;52.498;5.408;2023-11-19T11:14:07;12.70;99.90
19200;DHT22;9732;52.498;5.408;2023-11-19T11:16:37;12.80;99.90
19200;DHT22;9732;52.498;5.408;2023-11-19T11:19:07;12.90;99.90
19200;DHT22;9732;52.498;5.408;2023-11-19T11:21:36;12.90;99.90
19200;DHT22;9732;52.498;5.408;2023-11-19T11:24:24;12.90;99.90
19200;DHT22;9732;52.498;5.408;2023-11-19T11:30:05;12.80;99.90
19200;DHT22;9732;52.498;5.408;2023-11-19T11:32:43;12.90;99.90
19200;DHT22;9732;52.498;5.408;2023-11-19T11:35:24;12.80;99.90
19200;DHT22;9732;52.498;5.408;2023-11-19T11:38:00;12.80;99.90
19200;DHT22;9732;52.498;5.408;2023-11-19T11:40:28;12.80;99.90
19200;DHT22;9732;52.498;5.408;2023-11-19T11:42:55;12.80;99.90
19200;DHT22;9732;52.498;5.408;2023-11-19T11:45:35;12.90;99.90
19200;DHT22;9732;52.498;5.408;2023-11-19T11:48:09;12.90;99.90
19200;DHT22;9732;52.498;5.408;2023-11-19T11:50:46;13.00;99.90
19200;DHT22;9732;52.498;5.408;2023-11-19T11:53:16;13.00;99.90
19200;DHT22;9732;52.498;5.408;2023-11-19T11:55:54;13.00;99.90
19200;DHT22;9732;52.498;5.408;2023-11-19T11:58:26;13.10;99.90
19200;DHT22;9732;52.498;5.408;2023-11-19T12:00:54;13.10;99.90
19200;DHT22;9732;52.498;5.408;2023-11-19T12:03:21;13.10;99.90
19200;DHT22;9732;52.498;5.408;2023-11-19T12:05:48;13.00;99.90
19200;DHT22;9732;52.498;5.408;2023-11-19T12:08:18;13.00;99.90
19200;DHT22;9732;52.498;5.408;2023-11-19T12:10:47;13.00;99.90
19200;DHT22;9732;52.498;5.408;2023-11-19T12:13:14;13.10;99.90
19200;DHT22;9732;52.498;5.408;2023-11-19T12:16:10;13.10;99.90
19200;DHT22;9732;52.498;5.408;2023-11-19T12:18:39;13.10;99.90
19200;DHT22;9732;52.498;5.408;2023-11-19T12:21:07;13.00;99.90
19200;DHT22;9732;52.498;5.408;2023-11-19T12:23:35;13.00;99.90
19200;DHT22;9732;52.498;5.408;2023-11-19T12:26:21;13.00;99.90
19200;DHT22;9732;52.498;5.408;2023-11-19T12:28:57;13.00;99.90
19200;DHT22;9732;52.498;5.408;2023-11-19T12:31:25;13.00;99.90
19200;DHT22;9732;52.498;5.408;2023-11-19T12:33:52;13.00;99.90
19200;DHT22;9732;52.498;5.408;2023-11-19T12:36:20;13.00;99.90
19200;DHT22;9732;52.498;5.408;2023-11-19T12:38:47;13.10;99.90
19200;DHT22;9732;52.498;5.408;2023-11-19T12:41:13;13.10;99.90
19200;DHT22;9732;52.498;5.408;2023-11-19T12:43:43;13.10;99.90
19200;DHT22;9732;52.498;5.408;2023-11-19T12:46:19;13.10;99.90
19200;DHT22;9732;52.498;5.408;2023-11-19T12:48:48;13.00;99.90
19200;DHT22;9732;52.498;5.408;2023-11-19T12:51:15;13.10;99.90
19200;DHT22;9732;52.498;5.408;2023-11-19T12:53:48;13.00;99.90
19200;DHT22;9732;52.498;5.408;2023-11-19T12:56:16;13.00;99.90
19200;DHT22;9732;52.498;5.408;2023-11-19T12:58:42;13.00;99.90
19200;DHT22;9732;52.498;5.408;2023-11-19T13:01:09;13.00;99.90
19200;DHT22;9732;52.498;5.408;2023-11-19T13:03:37;13.00;99.90
19200;DHT22;9732;52.498;5.408;2023-11-19T13:06:07;13.10;99.90
19200;DHT22;9732;52.498;5.408;2023-11-19T13:08:37;13.00;99.90
19200;DHT22;9732;52.498;5.408;2023-11-19T13:11:04;13.00;99.90
19200;DHT22;9732;52.498;5.408;2023-11-19T13:13:32;13.00;99.90
19200;DHT22;9732;52.498;5.408;2023-11-19T13:16:04;13.00;99.90
19200;DHT22;9732;52.498;5.408;2023-11-19T13:18:31;12.90;99.90
19200;DHT22;9732;52.498;5.408;2023-11-19T13:20:58;12.90;99.90
19200;DHT22;9732;52.498;5.408;2023-11-19T13:23:26;12.60;99.90
19200;DHT22;9732;52.498;5.408;2023-11-19T13:25:52;12.60;99.90
19200;DHT22;9732;52.498;5.408;2023-11-19T13:28:19;12.50;99.90
19200;DHT22;9732;52.498;5.408;2023-11-19T13:30:46;12.50;99.90
19200;DHT22;9732;52.498;5.408;2023-11-19T13:33:12;12.50;99.90
19200;DHT22;9732;52.498;5.408;2023-11-19T13:35:40;12.50;99.90
19200;DHT22;9732;52.498;5.408;2023-11-19T13:38:07;12.40;99.90
19200;DHT22;9732;52.498;5.408;2023-11-19T13:40:36;12.50;99.90
19200;DHT22;9732;52.498;5.408;2023-11-19T13:43:02;12.50;99.90
19200;DHT22;9732;52.498;5.408;2023-11-19T13:45:29;12.50;99.90
19200;DHT22;9732;52.498;5.408;2023-11-19T13:47:56;12.70;99.90
19200;DHT22;9732;52.498;5.408;2023-11-19T13:50:22;12.50;99.90
19200;DHT22;9732;52.498;5.408;2023-11-19T13:52:49;12.60;99.90
19200;DHT22;9732;52.498;5.408;2023-11-19T13:55:16;12.60;99.90
19200;DHT22;9732;52.498;5.408;2023-11-19T13:57:45;12.60;99.90
19200;DHT22;9732;52.498;5.408;2023-11-19T14:00:13;12.70;99.90
19200;DHT22;9732;52.498;5.408;2023-11-19T14:02:42;12.80;99.90
19200;DHT22;9732;52.498;5.408;2023-11-19T14:05:09;12.80;99.90
19200;DHT22;9732;52.498;5.408;2023-11-19T14:07:36;12.80;99.90
19200;DHT22;9732;52.498;5.408;2023-11-19T14:10:03;12.80;99.90
19200;DHT22;9732;52.498;5.408;2023-11-19T14:12:31;12.90;99.90
19200;DHT22;9732;52.498;5.408;2023-11-19T14:15:00;12.90;99.90
19200;DHT22;9732;52.498;5.408;2023-11-19T14:17:42;13.00;99.90
19200;DHT22;9732;52.498;5.408;2023-11-19T14:20:12;13.00;99.90
19200;DHT22;9732;52.498;5.408;2023-11-19T14:22:41;13.00;99.90
19200;DHT22;9732;52.498;5.408;2023-11-19T14:25:09;13.00;99.90
19200;DHT22;9732;52.498;5.408;2023-11-19T14:27:36;13.00;99.90
19200;DHT22;9732;52.498;5.408;2023-11-19T14:30:07;12.90;99.90
19200;DHT22;9732;52.498;5.408;2023-11-19T14:32:36;13.00;99.90
19200;DHT22;9732;52.498;5.408;2023-11-19T14:35:04;12.90;99.90
19200;DHT22;9732;52.498;5.408;2023-11-19T14:37:32;12.90;99.90
19200;DHT22;9732;52.498;5.408;2023-11-19T14:40:00;12.80;99.90
19200;DHT22;9732;52.498;5.408;2023-11-19T14:42:31;12.80;99.90
19200;DHT22;9732;52.498;5.408;2023-11-19T14:44:59;12.70;99.90
19200;DHT22;9732;52.498;5.408;2023-11-19T14:47:28;12.70;99.90
19200;DHT22;9732;52.498;5.408;2023-11-19T14:49:56;12.70;99.90
19200;DHT22;9732;52.498;5.408;2023-11-19T14:52:25;12.70;99.90
19200;DHT22;9732;52.498;5.408;2023-11-19T14:54:53;12.70;99.90
19200;DHT22;9732;52.498;5.408;2023-11-19T14:57:22;12.70;99.90
19200;DHT22;9732;52.498;5.408;2023-11-19T14:59:48;12.70;99.90
19200;DHT22;9732;52.498;5.408;2023-11-19T15:02:17;12.70;99.90
19200;DHT22;9732;52.498;5.408;2023-11-19T15:04:46;12.60;99.90
19200;DHT22;9732;52.498;5.408;2023-11-19T15:07:15;12.60;99.90
19200;DHT22;9732;52.498;5.408;2023-11-19T15:09:42;12.50;99.90
19200;DHT22;9732;52.498;5.408;2023-11-19T15:12:09;12.50;99.90
19200;DHT22;9732;52.498;5.408;2023-11-19T15:14:38;12.50;99.90
19200;DHT22;9732;52.498;5.408;2023-11-19T15:17:06;12.40;99.90
19200;DHT22;9732;52.498;5.408;2023-11-19T15:19:35;12.30;99.90
19200;DHT22;9732;52.498;5.408;2023-11-19T15:22:05;12.40;99.90
19200;DHT22;9732;52.498;5.408;2023-11-19T15:24:32;12.40;99.90
19200;DHT22;9732;52.498;5.408;2023-11-19T15:27:00;12.40;99.90
19200;DHT22;9732;52.498;5.408;2023-11-19T15:29:35;12.40;99.90
19200;DHT22;9732;52.498;5.408;2023-11-19T15:32:05;12.40;99.90
19200;DHT22;9732;52.498;5.408;2023-11-19T15:34:33;12.40;99.90
19200;DHT22;9732;52.498;5.408;2023-11-19T15:37:04;12.40;99.90
19200;DHT22;9732;52.498;5.408;2023-11-19T15:39:30;12.50;99.90
19200;DHT22;9732;52.498;5.408;2023-11-19T15:41:58;12.50;99.90
19200;DHT22;9732;52.498;5.408;2023-11-19T15:44:25;12.60;99.90
19200;DHT22;9732;52.498;5.408;2023-11-19T15:46:51;12.50;99.90
19200;DHT22;9732;52.498;5.408;2023-11-19T15:49:19;12.50;99.90
19200;DHT22;9732;52.498;5.408;2023-11-19T15:51:45;12.50;99.90
19200;DHT22;9732;52.498;5.408;2023-11-19T15:54:13;12.50;99.90